createdAt,value
2022-08-07T00:00:03.473Z,0.00
2022-08-07T00:00:59.499Z,0.00
2022-08-07T00:02:40.797Z,0.00
2022-08-07T00:02:59.750Z,0.00
2022-08-07T00:03:58.716Z,0.00
2022-08-07T00:04:58.803Z,0.00
2022-08-07T00:05:58.716Z,0.00
2022-08-07T00:07:01.341Z,0.00
2022-08-07T00:08:02.029Z,0.00
2022-08-07T00:08:58.698Z,0.00
2022-08-07T00:10:19.140Z,0.00
2022-08-07T00:11:00.679Z,0.00
2022-08-07T00:11:59.016Z,0.00
2022-08-07T00:13:01.213Z,0.00
2022-08-07T00:13:58.644Z,0.00
2022-08-07T00:14:58.629Z,0.00
2022-08-07T00:15:58.648Z,0.00
2022-08-07T00:16:58.619Z,0.00
2022-08-07T00:17:58.645Z,0.00
2022-08-07T00:18:58.605Z,0.00
2022-08-07T00:20:01.532Z,0.00
2022-08-07T00:21:01.355Z,0.00
2022-08-07T00:22:01.976Z,0.00
2022-08-07T00:22:58.591Z,0.00
2022-08-07T00:23:58.563Z,0.00
2022-08-07T00:24:58.567Z,0.00
2022-08-07T00:26:01.820Z,0.00
2022-08-07T00:27:07.533Z,0.00
2022-08-07T00:27:59.553Z,0.00
2022-08-07T00:28:58.723Z,0.00
2022-08-07T00:29:58.534Z,0.00
2022-08-07T00:30:58.522Z,0.00
2022-08-07T00:31:58.509Z,0.00
2022-08-07T00:32:58.623Z,0.00
2022-08-07T00:33:58.521Z,0.00
2022-08-07T00:34:58.482Z,0.00
2022-08-07T00:35:58.489Z,0.00
2022-08-07T00:36:58.471Z,0.00
2022-08-07T00:37:58.480Z,0.00
2022-08-07T00:38:58.544Z,0.00
2022-08-07T00:39:58.449Z,0.00
2022-08-07T00:40:59.447Z,0.00
2022-08-07T00:42:02.369Z,0.00
2022-08-07T00:42:59.444Z,0.00
2022-08-07T00:44:00.725Z,0.00
2022-08-07T00:44:58.411Z,0.00
2022-08-07T00:45:58.409Z,0.00
2022-08-07T00:46:58.410Z,0.00
2022-08-07T00:48:09.839Z,0.00
2022-08-07T00:48:59.379Z,0.00
2022-08-07T00:50:20.774Z,0.00
2022-08-07T00:50:59.395Z,0.00
2022-08-07T00:51:58.879Z,0.00
2022-08-07T00:52:58.343Z,0.00
2022-08-07T00:53:58.341Z,0.00
2022-08-07T00:54:58.354Z,0.00
2022-08-07T00:56:02.053Z,0.00
2022-08-07T00:56:59.342Z,0.00
2022-08-07T00:57:58.331Z,0.00
2022-08-07T00:58:58.298Z,0.00
2022-08-07T00:59:58.322Z,0.00
2022-08-07T01:00:58.332Z,0.00
2022-08-07T01:01:58.330Z,0.00
2022-08-07T01:02:58.299Z,0.00
2022-08-07T01:04:00.118Z,0.00
2022-08-07T01:04:59.074Z,0.00
2022-08-07T01:05:58.243Z,0.00
2022-08-07T01:06:58.234Z,0.00
2022-08-07T01:07:58.259Z,0.00
2022-08-07T01:08:58.618Z,0.00
2022-08-07T01:10:06.226Z,0.00
2022-08-07T01:11:00.738Z,0.00
2022-08-07T01:12:23.969Z,0.00
2022-08-07T01:12:59.248Z,0.00
2022-08-07T01:13:58.197Z,0.00
2022-08-07T01:15:01.611Z,0.00
2022-08-07T01:16:00.826Z,0.00
2022-08-07T01:16:59.185Z,0.00
2022-08-07T01:17:58.177Z,0.00
2022-08-07T01:18:58.150Z,0.00
2022-08-07T01:19:58.142Z,0.00
2022-08-07T01:20:59.798Z,0.00
2022-08-07T01:21:58.115Z,0.00
2022-08-07T01:23:12.081Z,0.00
2022-08-07T01:23:59.095Z,0.00
2022-08-07T01:24:58.111Z,0.00
2022-08-07T01:25:58.105Z,0.00
2022-08-07T01:26:58.103Z,0.00
2022-08-07T01:27:58.144Z,0.00
2022-08-07T01:28:58.090Z,0.00
2022-08-07T01:29:58.057Z,0.00
2022-08-07T01:30:58.055Z,0.00
2022-08-07T01:31:59.335Z,0.00
2022-08-07T01:32:58.215Z,0.00
2022-08-07T01:33:58.095Z,0.00
2022-08-07T01:34:58.013Z,0.00
2022-08-07T01:36:06.387Z,0.00
2022-08-07T01:36:59.003Z,0.00
2022-08-07T01:37:57.992Z,0.00
2022-08-07T01:38:58.031Z,0.00
2022-08-07T01:39:58.056Z,0.00
2022-08-07T01:40:57.991Z,0.00
2022-08-07T01:42:38.777Z,0.00
2022-08-07T01:42:59.663Z,0.00
2022-08-07T01:43:57.972Z,0.00
2022-08-07T01:44:57.948Z,0.00
2022-08-07T02:02:32.866Z,0.00
2022-08-07T02:03:32.042Z,0.00
2022-08-07T02:04:32.807Z,0.00
2022-08-07T02:05:43.088Z,0.00
2022-08-07T02:06:32.710Z,0.00
2022-08-07T02:07:45.131Z,0.00
2022-08-07T02:08:32.695Z,0.00
2022-08-07T02:09:33.769Z,0.00
2022-08-07T02:10:32.659Z,0.00
2022-08-07T02:12:04.279Z,0.00
2022-08-07T02:12:32.646Z,0.00
2022-08-07T02:13:56.533Z,0.00
2022-08-07T02:14:36.217Z,0.00
2022-08-07T02:15:34.097Z,0.00
2022-08-07T02:16:33.486Z,0.00
2022-08-07T02:17:34.306Z,0.00
2022-08-07T02:18:31.621Z,0.00
2022-08-07T02:20:07.470Z,0.00
2022-08-07T02:20:32.737Z,0.00
2022-08-07T02:21:56.172Z,0.00
2022-08-07T02:23:03.509Z,0.00
2022-08-07T02:23:35.817Z,0.00
2022-08-07T02:24:31.587Z,0.00
2022-08-07T02:26:10.532Z,0.00
2022-08-07T02:26:34.399Z,0.00
2022-08-07T02:27:34.715Z,0.00
2022-08-07T02:28:31.525Z,0.00
2022-08-07T02:29:31.527Z,0.00
2022-08-07T02:30:31.530Z,0.00
2022-08-07T02:31:32.746Z,0.00
2022-08-07T02:32:31.491Z,0.00
2022-08-07T02:33:42.074Z,0.00
2022-08-07T02:34:32.491Z,0.00
2022-08-07T02:36:29.968Z,0.00
2022-08-07T02:36:33.057Z,0.00
2022-08-07T02:37:33.928Z,0.00
2022-08-07T02:38:32.082Z,0.00
2022-08-07T02:40:01.592Z,0.00
2022-08-07T02:40:35.365Z,0.00
2022-08-07T02:41:33.630Z,0.00
2022-08-07T02:42:32.393Z,0.00
2022-08-07T02:43:31.395Z,0.00
2022-08-07T02:44:34.763Z,0.00
2022-08-07T02:46:00.576Z,0.00
2022-08-07T02:46:32.367Z,0.00
2022-08-07T02:47:45.053Z,0.00
2022-08-07T02:48:32.345Z,0.00
2022-08-07T02:49:57.900Z,0.00
2022-08-07T02:50:32.353Z,0.00
2022-08-07T02:51:42.650Z,0.00
2022-08-07T02:52:32.627Z,0.00
2022-08-07T02:53:31.316Z,0.00
2022-08-07T02:54:32.319Z,0.00
2022-08-07T02:56:02.218Z,0.00
2022-08-07T02:56:32.313Z,0.00
2022-08-07T02:57:34.931Z,0.00
2022-08-07T02:58:33.368Z,0.00
2022-08-07T02:59:31.278Z,0.00
2022-08-07T03:00:32.235Z,0.00
2022-08-07T03:01:36.123Z,0.00
2022-08-07T03:02:32.233Z,0.00
2022-08-07T03:03:49.105Z,0.00
2022-08-07T03:04:32.290Z,0.00
2022-08-07T03:05:35.872Z,0.00
2022-08-07T03:06:34.572Z,0.00
2022-08-07T03:08:05.421Z,0.00
2022-08-07T03:08:32.209Z,0.00
2022-08-07T03:09:41.858Z,4.00
2022-08-07T03:10:32.204Z,4.00
2022-08-07T03:11:32.717Z,4.00
2022-08-07T03:12:31.325Z,0.00
2022-08-07T03:13:39.173Z,4.00
2022-08-07T03:14:32.160Z,4.00
2022-08-07T03:15:55.867Z,0.00
2022-08-07T03:16:32.132Z,4.00
2022-08-07T03:17:31.255Z,4.00
2022-08-07T03:18:34.753Z,4.00
2022-08-07T03:19:37.281Z,4.00
2022-08-07T03:20:32.107Z,8.00
2022-08-07T03:21:33.011Z,8.00
2022-08-07T03:22:31.115Z,4.00
2022-08-07T03:23:33.865Z,8.00
2022-08-07T03:24:32.074Z,12.00
2022-08-07T03:25:32.509Z,8.00
2022-08-07T03:26:32.057Z,12.00
2022-08-07T03:28:09.249Z,16.00
2022-08-07T03:28:38.024Z,16.00
2022-08-07T03:29:32.050Z,16.00
2022-08-07T03:30:31.684Z,20.00
2022-08-07T03:31:42.878Z,24.00
2022-08-07T03:32:32.025Z,28.00
2022-08-07T03:33:32.307Z,32.00
2022-08-07T03:34:32.003Z,36.00
2022-08-07T03:35:37.911Z,44.00
2022-08-07T03:36:31.980Z,52.00
2022-08-07T03:37:32.767Z,56.00
2022-08-07T03:38:33.328Z,68.00
2022-08-07T03:39:58.882Z,76.00
2022-08-07T03:40:36.566Z,88.00
2022-08-07T03:41:42.551Z,100.00
2022-08-07T03:42:31.934Z,112.00
2022-08-07T03:43:32.236Z,124.00
2022-08-07T03:44:34.527Z,140.00
2022-08-07T03:45:31.607Z,156.00
2022-08-07T03:46:31.945Z,172.00
2022-08-07T04:01:53.108Z,668.00
2022-08-07T04:02:56.791Z,720.00
2022-08-07T04:03:55.023Z,772.00
2022-08-07T04:04:54.125Z,824.00
2022-08-07T04:05:58.876Z,880.00
2022-08-07T04:06:55.120Z,936.00
2022-08-07T04:07:54.099Z,996.00
2022-08-07T04:08:54.095Z,1056.00
2022-08-07T04:09:54.090Z,1112.00
2022-08-07T04:12:20.775Z,1172.00
2022-08-07T04:12:28.268Z,1232.00
2022-08-07T04:12:55.066Z,1292.00
2022-08-07T04:14:09.389Z,1352.00
2022-08-07T04:14:55.058Z,1416.00
2022-08-07T04:15:54.062Z,1492.00
2022-08-07T04:16:58.390Z,1568.00
2022-08-07T04:18:58.695Z,1644.00
2022-08-07T04:18:59.338Z,1724.00
2022-08-07T04:19:55.333Z,1804.00
2022-08-07T04:20:54.623Z,1932.00
2022-08-07T04:21:59.681Z,2356.00
2022-08-07T04:23:01.866Z,3224.00
2022-08-07T04:24:07.094Z,4480.00
2022-08-07T04:24:54.987Z,6080.00
2022-08-07T04:25:53.993Z,7128.00
2022-08-07T04:26:53.977Z,7396.00
2022-08-07T04:28:00.378Z,7700.00
2022-08-07T04:28:54.931Z,8000.00
2022-08-07T04:30:01.260Z,8264.00
2022-08-07T04:30:57.387Z,8528.00
2022-08-07T04:32:02.898Z,8760.00
2022-08-07T04:32:58.288Z,9052.00
2022-08-07T04:33:55.118Z,9376.00
2022-08-07T04:34:53.910Z,9564.00
2022-08-07T04:35:54.260Z,9640.00
2022-08-07T04:36:53.914Z,9824.00
2022-08-07T04:38:03.332Z,10096.00
2022-08-07T04:38:54.869Z,10704.00
2022-08-07T04:39:53.931Z,12640.00
2022-08-07T04:40:56.697Z,17344.00
2022-08-07T04:41:53.839Z,24608.00
2022-08-07T04:42:53.857Z,29504.00
2022-08-07T04:44:11.863Z,29696.00
2022-08-07T04:45:03.013Z,30624.00
2022-08-07T04:46:01.033Z,31744.00
2022-08-07T04:47:03.873Z,33248.00
2022-08-07T04:47:58.610Z,34464.00
2022-08-07T04:48:55.432Z,34784.00
2022-08-07T04:50:03.595Z,33856.00
2022-08-07T04:50:54.774Z,33632.00
2022-08-07T04:51:53.795Z,35520.00
2022-08-07T04:52:53.742Z,36128.00
2022-08-07T04:54:01.583Z,36832.00
2022-08-07T04:54:54.739Z,37600.00
2022-08-07T04:58:10.352Z,39168.00
2022-08-07T04:58:15.219Z,41792.00
2022-08-07T04:58:15.735Z,43808.00
2022-08-07T04:59:17.405Z,43808.00
2022-08-07T05:00:11.764Z,43936.00
2022-08-07T05:00:54.804Z,45952.00
2022-08-07T05:01:53.676Z,46880.00
2022-08-07T05:02:53.666Z,47616.00
2022-08-07T05:04:07.951Z,45536.00
2022-08-07T05:04:54.655Z,42016.00
2022-08-07T05:05:57.120Z,40800.00
2022-08-07T05:06:54.649Z,43552.00
2022-08-07T05:07:55.578Z,47872.00
2022-08-07T05:09:00.862Z,51520.00
2022-08-07T05:09:54.631Z,53376.00
2022-08-07T05:10:58.475Z,55456.00
2022-08-07T05:11:56.836Z,55072.00
2022-08-07T05:12:56.188Z,55712.00
2022-08-07T05:14:51.941Z,55264.00
2022-08-07T05:15:04.047Z,56160.00
2022-08-07T05:15:55.595Z,55392.00
2022-08-07T05:16:53.565Z,54176.00
2022-08-07T05:17:54.941Z,54720.00
2022-08-07T05:18:53.586Z,55616.00
2022-08-07T05:19:53.568Z,55136.00
2022-08-07T05:20:53.679Z,57568.00
2022-08-07T05:22:00.247Z,59744.00
2022-08-07T05:22:54.541Z,59968.00
2022-08-07T05:23:53.521Z,59680.00
2022-08-07T05:24:53.540Z,61248.00
2022-08-07T05:26:10.412Z,62592.00
2022-08-07T05:26:54.490Z,62240.00
2022-08-07T05:28:03.202Z,63136.00
2022-08-07T05:28:55.614Z,62848.00
2022-08-07T05:29:53.737Z,62368.00
2022-08-07T05:30:53.495Z,63488.00
2022-08-07T05:31:53.467Z,64800.00
2022-08-07T05:32:53.445Z,64128.00
2022-08-07T05:34:04.474Z,66176.00
2022-08-07T05:34:54.442Z,66304.00
2022-08-07T05:35:53.435Z,65984.00
2022-08-07T05:36:53.454Z,66784.00
2022-08-07T05:38:08.652Z,67328.00
2022-08-07T05:39:00.803Z,67008.00
2022-08-07T05:40:13.746Z,68416.00
2022-08-07T05:40:54.431Z,69408.00
2022-08-07T05:42:02.375Z,69664.00
2022-08-07T05:42:55.831Z,69024.00
2022-08-07T05:44:12.237Z,70368.00
2022-08-07T05:45:14.062Z,71136.00
2022-08-07T05:45:56.519Z,72128.00
2022-08-07T05:46:53.447Z,71232.00
2022-08-07T05:48:01.141Z,71360.00
2022-08-07T05:48:58.363Z,73536.00
2022-08-07T05:49:54.346Z,74848.00
2022-08-07T05:50:53.306Z,72800.00
2022-08-07T05:51:53.451Z,73408.00
2022-08-07T05:52:53.294Z,75456.00
2022-08-07T05:54:09.581Z,77472.00
2022-08-07T05:54:55.807Z,79328.00
2022-08-07T05:56:03.735Z,78912.00
2022-08-07T05:56:54.709Z,79040.00
2022-08-07T05:57:53.250Z,81120.00
2022-08-07T05:58:53.244Z,82496.00
2022-08-07T05:59:57.290Z,81408.00
2022-08-07T06:00:53.224Z,80704.00
2022-08-07T06:01:53.291Z,80032.00
2022-08-07T06:02:53.238Z,79584.00
2022-08-07T06:03:58.549Z,80224.00
2022-08-07T06:04:54.214Z,81440.00
2022-08-07T06:05:56.656Z,81280.00
2022-08-07T06:06:56.438Z,81280.00
2022-08-07T06:08:12.902Z,80704.00
2022-08-07T06:08:54.176Z,80928.00
2022-08-07T06:10:05.504Z,80704.00
2022-08-07T06:10:54.860Z,81632.00
2022-08-07T06:11:53.153Z,83104.00
2022-08-07T06:12:53.176Z,82400.00
2022-08-07T06:14:11.731Z,81920.00
2022-08-07T06:14:54.134Z,82624.00
2022-08-07T06:15:53.119Z,81056.00
2022-08-07T06:16:56.252Z,80128.00
2022-08-07T06:17:53.723Z,80288.00
2022-08-07T06:18:55.613Z,81536.00
2022-08-07T06:20:03.434Z,81504.00
2022-08-07T06:22:11.654Z,80320.00
2022-08-07T06:22:14.628Z,81312.00
2022-08-07T06:23:02.178Z,81600.00
2022-08-07T06:24:45.641Z,81280.00
2022-08-07T06:24:58.480Z,80672.00
2022-08-07T06:25:56.907Z,80128.00
2022-08-07T06:26:53.028Z,83424.00
2022-08-07T06:28:01.103Z,81920.00
2022-08-07T06:28:54.025Z,81056.00
2022-08-07T06:29:53.041Z,81408.00
2022-08-07T06:30:53.197Z,81472.00
2022-08-07T06:31:53.043Z,80736.00
2022-08-07T06:32:52.987Z,81472.00
2022-08-07T06:33:52.982Z,82208.00
2022-08-07T06:34:52.967Z,83456.00
2022-08-07T06:36:13.380Z,84064.00
2022-08-07T06:36:53.971Z,83872.00
2022-08-07T06:37:53.066Z,83936.00
2022-08-07T06:40:12.681Z,82848.00
2022-08-07T06:40:17.843Z,80320.00
2022-08-07T06:40:53.978Z,78144.00
2022-08-07T06:42:02.689Z,81856.00
2022-08-07T06:42:53.905Z,82976.00
2022-08-07T06:44:01.343Z,81216.00
2022-08-07T06:44:53.890Z,82016.00
2022-08-07T06:45:55.337Z,82208.00
2022-08-07T06:47:10.452Z,82208.00
2022-08-07T06:47:58.571Z,81024.00
2022-08-07T06:48:53.891Z,82208.00
2022-08-07T06:49:58.649Z,83424.00
2022-08-07T06:50:54.874Z,82816.00
2022-08-07T06:51:53.913Z,82976.00
2022-08-07T06:52:53.845Z,83136.00
2022-08-07T06:55:27.766Z,83168.00
2022-08-07T06:55:31.286Z,83584.00
2022-08-07T06:56:01.463Z,84352.00
2022-08-07T06:56:53.796Z,85024.00
2022-08-07T06:57:56.926Z,86304.00
2022-08-07T07:00:12.532Z,86656.00
2022-08-07T07:00:13.373Z,85120.00
2022-08-07T07:00:53.772Z,82304.00
2022-08-07T07:01:52.861Z,82752.00
2022-08-07T07:02:57.748Z,84064.00
2022-08-07T07:03:58.892Z,83456.00
2022-08-07T07:04:54.996Z,82400.00
2022-08-07T07:06:05.156Z,79232.00
2022-08-07T07:07:00.209Z,80256.00
2022-08-07T07:07:59.441Z,84032.00
2022-08-07T07:08:53.736Z,84000.00
2022-08-07T07:09:52.732Z,81600.00
2022-08-07T07:10:54.909Z,83232.00
2022-08-07T07:12:09.682Z,82880.00
2022-08-07T07:12:53.816Z,82336.00
2022-08-07T07:13:58.277Z,81696.00
2022-08-07T07:14:53.704Z,80640.00
2022-08-07T07:15:52.670Z,80064.00
2022-08-07T07:16:53.350Z,81152.00
2022-08-07T07:17:52.645Z,80032.00
2022-08-07T07:18:52.732Z,80768.00
2022-08-07T07:19:57.688Z,81248.00
2022-08-07T07:20:53.675Z,81760.00
2022-08-07T07:22:04.595Z,81184.00
2022-08-07T07:24:07.061Z,84256.00
2022-08-07T07:24:11.126Z,84128.00
2022-08-07T07:24:56.666Z,83520.00
2022-08-07T07:26:32.686Z,83008.00
2022-08-07T07:26:54.314Z,85792.00
2022-08-07T07:27:56.190Z,81664.00
2022-08-07T07:29:38.931Z,78560.00
2022-08-07T07:30:09.056Z,83808.00
2022-08-07T07:30:53.551Z,84416.00
2022-08-07T07:31:52.577Z,85088.00
2022-08-07T07:32:52.537Z,83136.00
2022-08-07T07:33:56.820Z,81984.00
2022-08-07T07:34:53.536Z,82816.00
2022-08-07T07:36:05.602Z,82944.00
2022-08-07T07:36:54.206Z,82464.00
2022-08-07T07:38:02.092Z,83808.00
2022-08-07T07:38:54.533Z,84896.00
2022-08-07T07:39:55.283Z,83040.00
2022-08-07T07:40:52.487Z,80960.00
2022-08-07T07:42:13.251Z,82688.00
2022-08-07T07:42:54.026Z,81504.00
2022-08-07T07:44:17.143Z,81600.00
2022-08-07T07:44:53.467Z,81824.00
2022-08-07T07:46:36.836Z,79776.00
2022-08-07T07:47:00.242Z,77344.00
2022-08-07T07:47:53.626Z,76960.00
2022-08-07T07:49:00.287Z,77536.00
2022-08-07T07:50:34.516Z,77440.00
2022-08-07T07:50:53.400Z,79744.00
2022-08-07T07:51:57.425Z,80256.00
2022-08-07T07:52:53.403Z,78944.00
2022-08-07T07:53:52.781Z,79488.00
2022-08-07T07:54:53.451Z,79936.00
2022-08-07T07:55:54.812Z,78752.00
2022-08-07T07:56:53.380Z,78784.00
2022-08-07T07:57:54.036Z,78048.00
2022-08-07T07:58:53.381Z,76672.00
2022-08-07T07:59:53.942Z,76192.00
2022-08-07T08:00:54.122Z,79712.00
2022-08-07T08:02:01.929Z,77280.00
2022-08-07T08:03:04.621Z,75680.00
2022-08-07T08:04:09.344Z,79104.00
2022-08-07T08:04:53.395Z,79328.00
2022-08-07T08:05:54.912Z,77216.00
2022-08-07T08:06:53.356Z,75968.00
2022-08-07T08:08:00.994Z,77120.00
2022-08-07T08:08:53.292Z,76416.00
2022-08-07T08:10:05.132Z,75584.00
2022-08-07T08:10:53.280Z,74048.00
2022-08-07T08:12:02.200Z,74976.00
2022-08-07T08:12:59.637Z,75776.00
2022-08-07T08:13:55.806Z,75648.00
2022-08-07T08:14:52.230Z,74592.00
2022-08-07T08:15:58.596Z,74880.00
2022-08-07T08:16:53.252Z,76032.00
2022-08-07T08:17:58.087Z,74720.00
2022-08-07T08:18:53.243Z,73792.00
2022-08-07T08:20:17.523Z,76128.00
2022-08-07T08:20:54.040Z,77184.00
2022-08-07T08:21:58.610Z,75552.00
2022-08-07T08:23:24.151Z,73440.00
2022-08-07T08:23:52.190Z,73536.00
2022-08-07T08:25:04.438Z,72064.00
2022-08-07T08:25:54.565Z,71744.00
2022-08-07T08:26:52.180Z,71872.00
2022-08-07T08:27:57.322Z,70336.00
2022-08-07T08:28:53.144Z,71680.00
2022-08-07T08:29:55.716Z,63104.00
2022-08-07T08:30:55.606Z,60064.00
2022-08-07T08:32:17.366Z,69152.00
2022-08-07T08:32:53.926Z,69984.00
2022-08-07T08:33:55.911Z,70560.00
2022-08-07T08:34:53.145Z,70848.00
2022-08-07T08:35:52.152Z,69504.00
2022-08-07T08:36:56.221Z,70240.00
2022-08-07T08:38:00.697Z,71456.00
2022-08-07T08:38:53.102Z,69280.00
2022-08-07T08:39:55.202Z,68000.00
2022-08-07T08:40:53.114Z,69856.00
2022-08-07T08:41:58.667Z,70784.00
2022-08-07T08:42:53.061Z,69632.00
2022-08-07T08:43:59.205Z,68416.00
2022-08-07T08:44:53.174Z,67296.00
2022-08-07T08:45:59.048Z,64832.00
2022-08-07T08:46:53.017Z,64992.00
2022-08-07T08:47:54.874Z,65952.00
2022-08-07T08:48:52.785Z,66656.00
2022-08-07T08:50:02.781Z,64000.00
2022-08-07T08:50:54.801Z,55648.00
2022-08-07T08:52:14.009Z,52128.00
2022-08-07T08:52:54.270Z,59040.00
2022-08-07T08:53:51.991Z,67200.00
2022-08-07T08:54:51.971Z,47136.00
2022-08-07T08:55:54.414Z,17248.00
2022-08-07T08:56:52.966Z,16768.00
2022-08-07T08:57:52.111Z,16448.00
2022-08-07T08:58:54.909Z,16036.00
2022-08-07T08:59:54.778Z,15840.00
2022-08-07T09:00:52.606Z,15696.00
2022-08-07T09:01:51.985Z,15600.00
2022-08-07T09:02:54.004Z,15468.00
2022-08-07T09:03:52.710Z,15400.00
2022-08-07T09:04:55.004Z,15264.00
2022-08-07T09:05:57.388Z,15232.00
2022-08-07T09:06:53.735Z,15160.00
2022-08-07T09:07:58.319Z,15192.00
2022-08-07T09:08:52.881Z,15160.00
2022-08-07T09:09:57.060Z,15128.00
2022-08-07T09:10:52.900Z,15084.00
2022-08-07T09:11:56.198Z,15028.00
2022-08-07T09:12:53.185Z,15048.00
2022-08-07T09:13:51.817Z,15312.00
2022-08-07T09:14:58.719Z,15248.00
2022-08-07T09:16:24.389Z,15176.00
2022-08-07T09:16:52.790Z,15296.00
2022-08-07T09:17:59.545Z,15416.00
2022-08-07T09:18:58.591Z,15600.00
2022-08-07T09:19:55.441Z,15800.00
2022-08-07T09:20:58.312Z,16192.00
2022-08-07T09:22:09.760Z,16512.00
2022-08-07T09:24:35.085Z,17568.00
2022-08-07T09:24:54.865Z,17056.00
2022-08-07T09:25:00.450Z,18048.00
2022-08-07T09:25:54.265Z,18624.00
2022-08-07T09:26:51.761Z,19072.00
2022-08-07T09:27:54.541Z,19424.00
2022-08-07T09:30:04.150Z,21472.00
2022-08-07T09:30:04.787Z,21824.00
2022-08-07T09:30:54.899Z,21120.00
2022-08-07T09:31:52.878Z,19776.00
2022-08-07T09:32:52.316Z,18272.00
2022-08-07T09:33:56.981Z,17344.00
2022-08-07T09:34:54.318Z,16672.00
2022-08-07T09:36:03.865Z,16448.00
2022-08-07T09:36:52.649Z,16124.00
2022-08-07T09:37:53.953Z,15672.00
2022-08-07T09:38:53.974Z,15372.00
2022-08-07T09:39:53.903Z,15080.00
2022-08-07T09:40:53.133Z,14616.00
2022-08-07T09:41:58.930Z,14328.00
2022-08-07T09:42:52.611Z,14252.00
2022-08-07T09:44:05.336Z,14012.00
2022-08-07T09:47:24.545Z,13752.00
2022-08-07T09:47:50.658Z,13628.00
2022-08-07T09:47:51.123Z,13612.00
2022-08-07T09:48:02.486Z,12756.00
2022-08-07T09:50:01.739Z,12892.00
2022-08-07T09:50:02.272Z,12964.00
2022-08-07T09:50:52.552Z,12968.00
2022-08-07T09:52:15.425Z,12900.00
2022-08-07T09:52:53.913Z,12888.00
2022-08-07T09:53:57.002Z,12508.00
2022-08-07T09:54:53.622Z,12792.00
2022-08-07T09:56:03.417Z,12752.00
2022-08-07T09:56:52.519Z,12668.00
2022-08-07T09:57:51.584Z,12612.00
2022-08-07T09:58:51.498Z,12564.00
2022-08-07T10:00:00.718Z,12384.00
2022-08-07T10:00:52.559Z,12392.00
2022-08-07T10:01:54.345Z,12304.00
2022-08-07T10:02:55.072Z,12168.00
2022-08-07T10:04:05.008Z,12032.00
2022-08-07T10:04:53.042Z,11868.00
2022-08-07T10:05:59.278Z,11772.00
2022-08-07T10:06:54.015Z,11704.00
2022-08-07T10:07:53.652Z,11760.00
2022-08-07T10:08:51.478Z,11700.00
2022-08-07T10:10:01.131Z,11536.00
2022-08-07T10:12:01.578Z,11288.00
2022-08-07T10:12:52.648Z,11224.00
2022-08-07T10:14:00.733Z,11132.00
2022-08-07T10:14:55.191Z,10968.00
2022-08-07T10:15:51.944Z,10920.00
2022-08-07T10:16:51.394Z,10808.00
2022-08-07T10:18:01.875Z,10704.00
2022-08-07T10:18:52.366Z,10680.00
2022-08-07T10:19:51.394Z,10628.00
2022-08-07T10:20:51.347Z,10576.00
2022-08-07T10:22:15.822Z,10564.00
2022-08-07T10:22:52.378Z,10432.00
2022-08-07T10:24:05.582Z,10472.00
2022-08-07T10:24:52.315Z,10380.00
2022-08-07T10:25:51.974Z,10336.00
2022-08-07T10:26:53.044Z,10256.00
2022-08-07T10:27:51.643Z,10272.00
2022-08-07T10:28:51.336Z,10244.00
2022-08-07T10:29:51.677Z,10084.00
2022-08-07T10:30:51.285Z,9980.00
2022-08-07T10:31:51.258Z,10052.00
2022-08-07T10:32:53.614Z,10012.00
2022-08-07T10:34:06.909Z,9932.00
2022-08-07T10:34:52.229Z,9784.00
2022-08-07T10:35:56.675Z,9928.00
2022-08-07T10:36:52.229Z,9988.00
2022-08-07T10:38:21.120Z,9936.00
2022-08-07T10:38:52.581Z,9928.00
2022-08-07T10:40:03.350Z,9912.00
2022-08-07T10:40:52.210Z,9792.00
2022-08-07T10:41:53.848Z,9616.00
2022-08-07T10:42:52.343Z,9620.00
2022-08-07T10:43:51.184Z,9464.00
2022-08-07T10:44:52.232Z,9256.00
2022-08-07T10:45:58.224Z,9244.00
2022-08-07T10:46:53.162Z,9212.00
2022-08-07T10:47:53.157Z,9156.00
2022-08-07T10:48:51.139Z,9024.00
2022-08-07T10:49:51.783Z,8836.00
2022-08-07T10:50:51.867Z,8840.00
2022-08-07T10:52:02.061Z,8816.00
2022-08-07T10:52:52.149Z,8736.00
2022-08-07T10:53:51.154Z,8704.00
2022-08-07T10:54:53.371Z,8628.00
2022-08-07T10:55:53.350Z,8604.00
2022-08-07T10:56:51.088Z,8556.00
2022-08-07T10:57:56.086Z,8556.00
2022-08-07T10:58:56.718Z,8528.00
2022-08-07T10:59:52.053Z,8488.00
2022-08-07T11:00:55.950Z,8508.00
2022-08-07T11:02:04.668Z,8352.00
2022-08-07T11:02:53.883Z,8184.00
2022-08-07T11:03:55.059Z,8524.00
2022-08-07T11:04:52.041Z,8108.00
2022-08-07T11:05:51.372Z,8148.00
2022-08-07T11:06:51.041Z,8360.00
2022-08-07T11:07:59.205Z,8224.00
2022-08-07T11:08:52.062Z,8236.00
2022-08-07T11:10:07.606Z,8252.00
2022-08-07T11:10:57.893Z,8188.00
2022-08-07T11:11:52.992Z,8148.00
2022-08-07T11:13:01.623Z,8108.00
2022-08-07T11:14:43.877Z,8084.00
2022-08-07T11:15:00.421Z,8008.00
2022-08-07T11:15:54.662Z,8108.00
2022-08-07T11:16:54.633Z,7908.00
2022-08-07T11:17:53.994Z,7852.00
2022-08-07T11:18:51.737Z,7772.00
2022-08-07T11:19:51.506Z,7764.00
2022-08-07T11:20:50.942Z,7728.00
2022-08-07T11:21:50.915Z,7764.00
2022-08-07T11:22:50.929Z,7668.00
2022-08-07T11:23:50.888Z,7716.00
2022-08-07T11:24:51.775Z,7680.00
2022-08-07T11:25:50.906Z,7736.00
2022-08-07T11:26:50.889Z,7768.00
2022-08-07T11:28:01.795Z,7368.00
2022-08-07T11:28:55.298Z,7776.00
2022-08-07T11:30:10.031Z,7788.00
2022-08-07T11:30:52.857Z,7756.00
2022-08-07T11:31:51.813Z,7824.00
2022-08-07T11:32:53.597Z,7892.00
2022-08-07T11:33:58.548Z,7728.00
2022-08-07T11:34:52.353Z,7712.00
2022-08-07T11:35:59.864Z,7712.00
2022-08-07T11:36:51.856Z,7712.00
2022-08-07T11:37:57.778Z,7804.00
2022-08-07T11:38:51.777Z,7764.00
2022-08-07T11:40:00.727Z,7936.00
2022-08-07T11:40:51.785Z,7748.00
2022-08-07T11:42:01.540Z,7692.00
2022-08-07T11:42:51.752Z,7732.00
2022-08-07T11:44:11.402Z,7816.00
2022-08-07T11:44:57.502Z,7740.00
2022-08-07T11:45:53.655Z,7768.00
2022-08-07T11:46:50.753Z,7836.00
2022-08-07T11:47:56.144Z,7776.00
2022-08-07T11:49:27.617Z,7804.00
2022-08-07T11:50:30.361Z,7776.00
2022-08-07T11:50:57.899Z,7780.00
2022-08-07T11:51:51.753Z,7776.00
2022-08-07T11:52:51.287Z,7764.00
2022-08-07T11:54:00.643Z,7804.00
2022-08-07T11:54:54.949Z,7860.00
2022-08-07T11:56:09.253Z,7860.00
2022-08-07T11:56:52.313Z,7872.00
2022-08-07T11:58:00.064Z,7944.00
2022-08-07T11:58:51.651Z,7900.00
2022-08-07T12:00:10.897Z,7952.00
2022-08-07T12:01:02.402Z,7992.00
2022-08-07T12:01:59.021Z,8048.00
2022-08-07T12:02:53.539Z,8016.00
2022-08-07T12:03:50.851Z,8060.00
2022-08-07T12:04:50.600Z,8348.00
2022-08-07T12:05:51.390Z,8096.00
2022-08-07T12:07:00.335Z,8120.00
2022-08-07T12:07:53.690Z,8140.00
2022-08-07T12:08:52.481Z,8148.00
2022-08-07T12:09:50.563Z,8152.00
2022-08-07T12:11:08.196Z,8140.00
2022-08-07T12:12:09.011Z,8124.00
2022-08-07T12:12:51.527Z,8268.00
2022-08-07T12:13:51.391Z,8120.00
2022-08-07T12:14:56.153Z,8136.00
2022-08-07T12:16:07.045Z,8128.00
2022-08-07T12:16:51.521Z,8132.00
2022-08-07T12:17:58.978Z,8100.00
2022-08-07T12:18:51.520Z,8124.00
2022-08-07T12:19:56.498Z,8136.00
2022-08-07T12:20:52.511Z,8276.00
2022-08-07T12:21:55.535Z,8176.00
2022-08-07T12:22:56.537Z,8176.00
2022-08-07T12:24:05.318Z,8188.00
2022-08-07T12:24:52.414Z,8168.00
2022-08-07T12:26:02.797Z,8236.00
2022-08-07T12:26:51.500Z,8276.00
2022-08-07T12:28:08.872Z,8288.00
2022-08-07T12:28:53.089Z,8256.00
2022-08-07T12:29:51.803Z,8304.00
2022-08-07T12:30:53.359Z,8300.00
2022-08-07T12:32:01.924Z,8388.00
2022-08-07T12:32:51.396Z,8376.00
2022-08-07T12:33:56.088Z,8548.00
2022-08-07T12:34:55.719Z,8408.00
2022-08-07T12:35:58.165Z,8424.00
2022-08-07T12:36:51.394Z,8220.00
2022-08-07T12:38:09.149Z,7912.00
2022-08-07T12:38:57.113Z,8080.00
2022-08-07T12:39:51.737Z,8360.00
2022-08-07T12:40:50.809Z,8340.00
2022-08-07T12:41:51.861Z,8476.00
2022-08-07T12:42:55.099Z,8484.00
2022-08-07T12:44:03.697Z,8460.00
2022-08-07T12:44:51.288Z,8400.00